Time;durP1;ratioP1;P1;durP2;ratioP2;P2;SDS_P1;SDS_P2;PMS_P1;PMS_P2;Temp;Humidity;BMP_temperature;BMP_pressure;BME280_temperature;BME280_humidity;BME280_pressure;Samples;Min_cycle;Max_cycle;Signal;HPM_P1;HPM_P2
2023/07/07 00:01:54;;;;;;;;;;;;;;;-140.72;100.00;52638.41;4976321;28;19917;-70
2023/07/07 00:04:20;;;;;;;;;;;;;;;-140.72;100.00;52614.06;4992647;28;19962;-70
2023/07/07 00:06:46;;;;;;;;;;;;;;;-140.72;100.00;52620.16;4985532;28;20289;-70
2023/07/07 00:09:11;;;;;;;;;;;;;;;-140.72;100.00;52626.25;4988575;28;19917;-70
2023/07/07 00:11:36;;;;;;;;;;;;;;;-140.72;100.00;52616.09;4974930;28;19972;-70
2023/07/07 00:14:02;;;;;;;;;;;;;;;-140.72;100.00;52626.25;4992693;28;19922;-69
2023/07/07 00:16:28;;;;;;;;;;;;;;;-140.72;100.00;52601.91;4991282;28;20009;-70
2023/07/07 00:18:53;;;;;;;;;;;;;;;-140.72;100.00;52638.41;4973695;28;20013;-70
2023/07/07 00:21:24;;;;;;;;;;;;;;;-140.72;100.00;52642.47;4993596;28;20402;-69
2023/07/07 00:23:53;;;;;;;;;;;;;;;-140.72;100.00;52642.47;4975249;28;20254;-70
2023/07/07 00:26:19;;;;;;;;;;;;;;;-140.72;100.00;52646.53;4989724;28;19928;-70
2023/07/07 00:28:44;;;;;;;;;;;;;;;-140.72;100.00;52626.25;4985105;28;19963;-70
2023/07/07 00:31:09;;;;;;;;;;;;;;;-140.72;100.00;52618.13;4985927;28;19940;-70
2023/07/07 00:33:34;;;;;;;;;;;;;;;-140.72;100.00;52610.00;4994765;28;19930;-70
2023/07/07 00:36:00;;;;;;;;;;;;;;;-140.72;100.00;52612.03;4987740;28;20045;-70
2023/07/07 00:38:25;;;;;;;;;;;;;;;-140.72;100.00;52601.91;4993438;28;19925;-70
2023/07/07 00:40:52;;;;;;;;;;;;;;;-140.72;100.00;52634.38;4974801;28;19941;-70
2023/07/07 00:43:18;;;;;;;;;;;;;;;-140.72;100.00;52614.06;4989026;28;19922;-71
2023/07/07 00:45:44;;;;;;;;;;;;;;;-140.72;100.00;52628.28;4994273;28;20009;-70
2023/07/07 00:48:12;;;;;;;;;;;;;;;-140.72;100.00;52638.41;4985087;28;19972;-70
2023/07/07 00:50:40;;;;;;;;;;;;;;;-140.72;100.00;52658.72;4977359;28;19921;-70
2023/07/07 00:53:06;;;;;;;;;;;;;;;-140.72;100.00;52632.34;4989876;28;19926;-70
2023/07/07 00:55:43;;;;;;;;;;;;;;;-140.72;100.00;52622.19;4994533;28;20027;-70
2023/07/07 00:58:10;;;;;;;;;;;;;;;-140.72;100.00;52630.31;4994152;28;19921;-70
2023/07/07 01:00:37;;;;;;;;;;;;;;;-140.72;100.00;52614.06;4993769;28;20027;-70
2023/07/07 01:03:07;;;;;;;;;;;;;;;-140.72;100.00;52638.41;4983583;28;19960;-70
2023/07/07 01:05:33;;;;;;;;;;;;;;;-140.72;100.00;52672.91;4971683;28;20028;-71
2023/07/07 01:08:00;;;;;;;;;;;;;;;-140.72;100.00;52640.44;4977314;28;19922;-70
2023/07/07 01:10:31;;;;;;;;;;;;;;;-140.72;100.00;52638.41;4991998;28;19921;-70
2023/07/07 01:12:56;;;;;;;;;;;;;;;-140.72;100.00;52664.81;4987983;28;20351;-69
2023/07/07 01:15:23;;;;;;;;;;;;;;;-140.72;100.00;52676.97;4992828;28;19925;-69
2023/07/07 01:18:14;;;;;;;;;;;;;;;-140.72;100.00;52634.38;4974814;28;19918;-69
2023/07/07 01:20:42;;;;;;;;;;;;;;;-140.72;100.00;52644.50;4960360;28;19922;-69
2023/07/07 01:23:08;;;;;;;;;;;;;;;-140.72;100.00;52642.47;4988964;28;19933;-69
2023/07/07 01:25:55;;;;;;;;;;;;;;;-140.72;100.00;52654.66;4975441;28;19922;-69
2023/07/07 01:28:32;;;;;;;;;;;;;;;-140.72;100.00;52638.41;4975140;28;19972;-69
2023/07/07 01:31:12;;;;;;;;;;;;;;;-140.72;100.00;52593.78;4993024;28;19918;-69
2023/07/07 01:33:39;;;;;;;;;;;;;;;-140.72;100.00;52660.75;4978777;28;19937;-70
2023/07/07 01:36:04;;;;;;;;;;;;;;;-140.72;100.00;52614.06;4989161;28;19941;-70
2023/07/07 01:38:35;;;;;;;;;;;;;;;-140.72;100.00;52660.75;4993558;28;19918;-69
2023/07/07 01:41:13;;;;;;;;;;;;;;;-140.72;100.00;52622.19;4974217;28;20345;-69
2023/07/07 01:43:44;;;;;;;;;;;;;;;-140.72;100.00;52648.56;4975050;28;20340;-70
2023/07/07 01:46:26;;;;;;;;;;;;;;;-140.72;100.00;52634.38;4959523;28;20324;-69
2023/07/07 01:48:55;;;;;;;;;;;;;;;-140.72;100.00;52685.09;4992454;28;19918;-69
2023/07/07 01:51:22;;;;;;;;;;;;;;;-140.72;100.00;52636.38;5007761;28;20045;-69
2023/07/07 01:53:50;;;;;;;;;;;;;;;-140.72;100.00;52624.22;4978791;28;19918;-69
2023/07/07 01:56:19;;;;;;;;;;;;;;;-140.72;100.00;52652.63;4984966;28;19929;-69
2023/07/07 01:58:45;;;;;;;;;;;;;;;-140.72;100.00;52644.50;4977214;28;20283;-70
2023/07/07 02:01:17;;;;;;;;;;;;;;;-140.72;100.00;52626.25;4996021;28;19918;-69
2023/07/07 02:03:42;;;;;;;;;;;;;;;-140.72;100.00;52640.44;4996955;28;20359;-69
2023/07/07 02:06:07;;;;;;;;;;;;;;;-140.72;100.00;52607.97;4987574;28;19918;-70
2023/07/07 02:08:32;;;;;;;;;;;;;;;-140.72;100.00;52632.34;4990273;28;20355;-69
2023/07/07 02:10:58;;;;;;;;;;;;;;;-140.72;100.00;52644.50;4987331;28;19953;-69
2023/07/07 02:13:23;;;;;;;;;;;;;;;-140.72;100.00;52630.31;4988433;28;19918;-70
2023/07/07 02:15:50;;;;;;;;;;;;;;;-140.72;100.00;52685.09;4991990;28;19925;-69
2023/07/07 02:18:16;;;;;;;;;;;;;;;-140.72;100.00;52607.97;4996341;28;19917;-69
2023/07/07 02:20:41;;;;;;;;;;;;;;;-140.72;100.00;52646.53;4989473;28;20348;-70
2023/07/07 02:23:12;;;;;;;;;;;;;;;-140.72;100.00;52640.44;4992765;28;20431;-70
2023/07/07 02:25:37;;;;;;;;;;;;;;;-140.72;100.00;52626.25;4998147;28;19922;-70
2023/07/07 02:28:05;;;;;;;;;;;;;;;-140.72;100.00;52670.88;4976284;28;19922;-69
2023/07/07 02:30:31;;;;;;;;;;;;;;;-140.72;100.00;52646.53;4978283;28;19994;-69
2023/07/07 02:32:57;;;;;;;;;;;;;;;-140.72;100.00;52642.47;4977705;28;19988;-69
2023/07/07 02:35:23;;;;;;;;;;;;;;;-140.72;100.00;52610.00;4991287;28;19929;-69
2023/07/07 02:37:48;;;;;;;;;;;;;;;-140.72;100.00;52648.56;4982637;28;20300;-69
2023/07/07 02:40:16;;;;;;;;;;;;;;;-140.72;100.00;52660.75;4969898;28;19922;-70
2023/07/07 02:42:41;;;;;;;;;;;;;;;-140.72;100.00;52660.75;4980329;28;19929;-69
2023/07/07 02:45:07;;;;;;;;;;;;;;;-140.72;100.00;52670.88;4992476;28;20006;-69
2023/07/07 02:47:32;;;;;;;;;;;;;;;-140.72;100.00;52656.69;4994229;28;19918;-69
2023/07/07 02:49:58;;;;;;;;;;;;;;;-140.72;100.00;52668.84;4990204;28;20415;-70
2023/07/07 02:52:23;;;;;;;;;;;;;;;-140.72;100.00;52642.47;4965274;28;20308;-70
2023/07/07 02:54:48;;;;;;;;;;;;;;;-140.72;100.00;52638.41;4991081;28;19929;-71
2023/07/07 02:57:13;;;;;;;;;;;;;;;-140.72;100.00;52636.38;4972380;28;19926;-70
2023/07/07 02:59:39;;;;;;;;;;;;;;;-140.72;100.00;52646.53;4986821;28;19926;-70
2023/07/07 03:02:04;;;;;;;;;;;;;;;-140.72;100.00;52685.09;4982804;28;19933;-70
2023/07/07 03:04:29;;;;;;;;;;;;;;;-140.72;100.00;52676.97;4993121;28;19969;-68
2023/07/07 03:06:55;;;;;;;;;;;;;;;-140.72;100.00;52679.00;4993109;28;19918;-70
2023/07/07 03:09:20;;;;;;;;;;;;;;;-140.72;100.00;52644.50;4990610;28;20462;-70
2023/07/07 03:11:45;;;;;;;;;;;;;;;-140.72;100.00;52607.97;4994318;28;20001;-69
2023/07/07 03:14:11;;;;;;;;;;;;;;;-140.72;100.00;52662.78;4993390;28;20279;-70
2023/07/07 03:16:36;;;;;;;;;;;;;;;-140.72;100.00;52618.13;4995610;28;20403;-69
2023/07/07 03:19:03;;;;;;;;;;;;;;;-140.72;100.00;52614.06;4993434;28;19965;-70
2023/07/07 03:21:28;;;;;;;;;;;;;;;-140.72;100.00;52662.78;4988471;28;20406;-69
2023/07/07 03:23:54;;;;;;;;;;;;;;;-140.72;100.00;52685.09;4987245;28;20010;-70
2023/07/07 03:26:20;;;;;;;;;;;;;;;-140.72;100.00;52640.44;4992476;28;19990;-69
2023/07/07 03:28:46;;;;;;;;;;;;;;;-140.72;100.00;52654.66;4993160;28;20328;-70
2023/07/07 03:31:13;;;;;;;;;;;;;;;-140.72;100.00;52646.53;4987099;28;19972;-69
2023/07/07 03:33:39;;;;;;;;;;;;;;;-140.72;100.00;52646.53;4987862;28;19928;-70
2023/07/07 03:36:05;;;;;;;;;;;;;;;-140.72;100.00;52650.59;4994096;28;20316;-70
2023/07/07 03:38:30;;;;;;;;;;;;;;;-140.72;100.00;52636.38;4975792;28;19965;-70
2023/07/07 03:40:55;;;;;;;;;;;;;;;-140.72;100.00;52632.34;4977025;28;19917;-69
2023/07/07 03:43:20;;;;;;;;;;;;;;;-140.72;100.00;52650.59;4988346;28;19918;-70
2023/07/07 03:45:46;;;;;;;;;;;;;;;-140.72;100.00;52668.84;4994505;28;19918;-70
2023/07/07 03:48:12;;;;;;;;;;;;;;;-140.72;100.00;52616.09;4995676;28;19925;-70
2023/07/07 03:50:37;;;;;;;;;;;;;;;-140.72;100.00;52646.53;4989646;28;20329;-69
2023/07/07 03:53:02;;;;;;;;;;;;;;;-140.72;100.00;52654.66;4985366;28;20346;-71
2023/07/07 03:55:27;;;;;;;;;;;;;;;-140.72;100.00;52628.28;4986827;28;19919;-69
2023/07/07 03:57:53;;;;;;;;;;;;;;;-140.72;100.00;52638.41;4993324;28;19921;-70
2023/07/07 04:00:18;;;;;;;;;;;;;;;-140.72;100.00;52638.41;4983205;28;19980;-70
2023/07/07 04:02:43;;;;;;;;;;;;;;;-140.72;100.00;52648.56;4980493;28;19996;-70
2023/07/07 04:05:09;;;;;;;;;;;;;;;-140.72;100.00;52650.59;4994268;28;20384;-70
2023/07/07 04:07:37;;;;;;;;;;;;;;;-140.72;100.00;52670.88;5003768;28;20026;-70
2023/07/07 04:10:03;;;;;;;;;;;;;;;-140.72;100.00;52650.59;4977461;28;20411;-70
2023/07/07 04:12:29;;;;;;;;;;;;;;;-140.72;100.00;52666.84;4991902;28;19941;-70
2023/07/07 04:14:54;;;;;;;;;;;;;;;-140.72;100.00;52660.75;4981100;28;19933;-70
2023/07/07 04:17:19;;;;;;;;;;;;;;;-140.72;100.00;52634.38;4993057;28;19929;-70
2023/07/07 04:19:44;;;;;;;;;;;;;;;-140.72;100.00;52676.97;4986618;28;20254;-72
2023/07/07 04:22:10;;;;;;;;;;;;;;;-140.72;100.00;52622.19;4982704;28;19922;-73
2023/07/07 04:24:35;;;;;;;;;;;;;;;-140.72;100.00;52624.22;4994261;28;20004;-73
2023/07/07 04:27:00;;;;;;;;;;;;;;;-140.72;100.00;52660.75;4986006;28;20363;-74
2023/07/07 04:29:26;;;;;;;;;;;;;;;-140.72;100.00;52658.72;4998633;28;19993;-74
2023/07/07 04:32:04;;;;;;;;;;;;;;;-140.72;100.00;52660.75;4985560;28;20364;-74
2023/07/07 04:34:30;;;;;;;;;;;;;;;-140.72;100.00;52630.31;4968458;28;19922;-74
2023/07/07 04:36:55;;;;;;;;;;;;;;;-140.72;100.00;52660.75;4987272;28;19925;-75
2023/07/07 04:39:21;;;;;;;;;;;;;;;-140.72;100.00;52614.06;4993880;28;20368;-74
2023/07/07 04:41:48;;;;;;;;;;;;;;;-140.72;100.00;52656.69;4965398;28;20314;-73
2023/07/07 04:44:14;;;;;;;;;;;;;;;-140.72;100.00;52591.75;4993657;28;19918;-72
2023/07/07 04:46:40;;;;;;;;;;;;;;;-140.72;100.00;52646.53;4986214;28;20013;-72
2023/07/07 04:49:06;;;;;;;;;;;;;;;-140.72;100.00;52644.50;4986260;28;20383;-73
2023/07/07 04:51:39;;;;;;;;;;;;;;;-140.72;100.00;52642.47;4994462;28;19922;-71
2023/07/07 04:54:05;;;;;;;;;;;;;;;-140.72;100.00;52658.72;4993162;28;20264;-69
2023/07/07 04:56:32;;;;;;;;;;;;;;;-140.72;100.00;52616.09;4993297;28;19928;-68
2023/07/07 04:58:58;;;;;;;;;;;;;;;-140.72;100.00;52597.84;4992942;28;19945;-72
2023/07/07 05:01:26;;;;;;;;;;;;;;;-140.72;100.00;52622.19;4972655;28;20372;-70
2023/07/07 05:03:55;;;;;;;;;;;;;;;-140.72;100.00;52601.91;4992782;28;19917;-71
2023/07/07 05:06:21;;;;;;;;;;;;;;;-140.72;100.00;52646.53;4975260;28;19922;-69
2023/07/07 05:08:47;;;;;;;;;;;;;;;-140.72;100.00;52575.50;4992254;28;19929;-71
2023/07/07 05:11:14;;;;;;;;;;;;;;;-140.72;100.00;52597.84;4970421;28;19925;-67
2023/07/07 05:13:40;;;;;;;;;;;;;;;-140.72;100.00;52591.75;4993829;28;19921;-67
2023/07/07 05:16:07;;;;;;;;;;;;;;;-140.72;100.00;52597.84;4979897;28;19945;-67
2023/07/07 05:18:33;;;;;;;;;;;;;;;-140.72;100.00;52618.13;4978173;28;19933;-72
2023/07/07 05:20:58;;;;;;;;;;;;;;;-140.72;100.00;52595.81;4986515;28;19929;-69
2023/07/07 05:23:25;;;;;;;;;;;;;;;-140.72;100.00;52614.06;4978176;28;20288;-70
2023/07/07 05:25:51;;;;;;;;;;;;;;;-140.72;100.00;52585.66;4989187;28;19922;-69
2023/07/07 05:28:16;;;;;;;;;;;;;;;-140.72;100.00;52565.38;4992745;28;19933;-72
2023/07/07 05:30:42;;;;;;;;;;;;;;;-140.72;100.00;52589.72;4993379;28;19925;-72
2023/07/07 05:33:07;;;;;;;;;;;;;;;-140.72;100.00;52577.53;4993896;28;19921;-72
2023/07/07 05:35:32;;;;;;;;;;;;;;;-140.72;100.00;52595.81;4989669;28;19929;-76
2023/07/07 05:38:00;;;;;;;;;;;;;;;-140.72;100.00;52601.91;4986806;28;19918;-71
2023/07/07 05:40:27;;;;;;;;;;;;;;;-140.72;100.00;52593.78;4995056;28;20203;-70
2023/07/07 05:42:52;;;;;;;;;;;;;;;-140.72;100.00;52541.03;4971815;28;19997;-70
2023/07/07 05:45:18;;;;;;;;;;;;;;;-140.72;100.00;52545.06;4994408;28;19949;-70
2023/07/07 05:47:44;;;;;;;;;;;;;;;-140.72;100.00;52528.84;4985806;28;19925;-70
2023/07/07 05:50:09;;;;;;;;;;;;;;;-140.72;100.00;52534.94;4995481;28;19928;-71
2023/07/07 05:52:37;;;;;;;;;;;;;;;-140.72;100.00;52526.81;4980843;28;20004;-70
2023/07/07 05:55:03;;;;;;;;;;;;;;;-140.72;100.00;52557.25;4988655;28;19940;-71
2023/07/07 05:57:29;;;;;;;;;;;;;;;-140.72;100.00;52551.16;4981127;28;19996;-72
2023/07/07 05:59:54;;;;;;;;;;;;;;;-140.72;100.00;52541.03;4999067;28;19957;-71
2023/07/07 06:02:20;;;;;;;;;;;;;;;-140.72;100.00;52551.16;4998978;28;19918;-71
2023/07/07 06:04:46;;;;;;;;;;;;;;;-140.72;100.00;52526.81;4997836;28;19976;-70
2023/07/07 06:07:11;;;;;;;;;;;;;;;-140.72;100.00;52516.66;4997019;28;19917;-70
2023/07/07 06:09:36;;;;;;;;;;;;;;;-140.72;100.00;52526.81;4996968;28;19925;-70
2023/07/07 06:12:02;;;;;;;;;;;;;;;-140.72;81.70;52536.97;4984577;28;20409;-72
2023/07/07 06:14:27;;;;;;;;;;;;;;;-140.72;71.87;52467.97;4974160;28;20431;-71
2023/07/07 06:16:52;;;;;;;;;;;;;;;-140.72;69.38;52482.16;4975989;28;19929;-70
2023/07/07 06:19:17;;;;;;;;;;;;;;;-140.72;53.23;52510.59;5006110;28;20013;-71
2023/07/07 06:21:43;;;;;;;;;;;;;;;-140.72;42.60;52480.16;4995686;28;19962;-71
2023/07/07 06:24:08;;;;;;;;;;;;;;;-140.72;31.21;52474.06;4972010;28;20336;-70
2023/07/07 06:26:33;;;;;;;;;;;;;;;-140.72;19.56;52478.13;4982229;28;19929;-71
2023/07/07 06:28:58;;;;;;;;;;;;;;;-140.72;11.25;52449.72;4984899;28;19925;-71
2023/07/07 06:31:23;;;;;;;;;;;;;;;-140.72;0.00;52494.34;4987140;28;19956;-71
2023/07/07 06:33:49;;;;;;;;;;;;;;;-140.72;2.24;52486.22;4983678;28;19923;-72
2023/07/07 06:36:14;;;;;;;;;;;;;;;-140.72;0.00;52482.16;4995466;28;19984;-70
2023/07/07 06:38:40;;;;;;;;;;;;;;;-140.72;0.00;52447.69;4978332;28;19918;-71
2023/07/07 06:41:07;;;;;;;;;;;;;;;-140.72;0.00;52474.06;4961559;28;19922;-71
2023/07/07 06:43:33;;;;;;;;;;;;;;;-140.72;0.00;52463.91;4994103;28;19921;-71
2023/07/07 06:45:58;;;;;;;;;;;;;;;-140.72;0.00;52439.56;4993561;28;19976;-72
2023/07/07 06:48:24;;;;;;;;;;;;;;;-140.72;0.00;52390.84;4993606;28;19922;-70
2023/07/07 06:50:49;;;;;;;;;;;;;;;-140.72;0.00;52457.81;4994759;28;20012;-70
2023/07/07 06:53:15;;;;;;;;;;;;;;;-140.72;0.00;52419.28;4983633;28;20390;-71
2023/07/07 06:55:40;;;;;;;;;;;;;;;-140.72;0.00;52388.84;4996749;28;19918;-71
2023/07/07 06:58:05;;;;;;;;;;;;;;;-140.72;0.00;52423.31;4993219;28;20031;-71
2023/07/07 07:00:31;;;;;;;;;;;;;;;-140.72;0.00;52447.69;4990941;28;19922;-71
2023/07/07 07:02:56;;;;;;;;;;;;;;;-140.72;0.00;52417.25;4981218;28;20039;-72
2023/07/07 07:05:22;;;;;;;;;;;;;;;-140.72;0.00;52411.16;4994227;28;19929;-72
2023/07/07 07:07:48;;;;;;;;;;;;;;;-140.72;0.00;52398.97;4988103;28;19930;-71
2023/07/07 07:10:13;;;;;;;;;;;;;;;-140.72;0.00;52425.34;4986817;28;19918;-73
2023/07/07 07:12:39;;;;;;;;;;;;;;;-140.72;0.00;52401.00;4987138;28;19922;-72
2023/07/07 07:15:05;;;;;;;;;;;;;;;-140.72;0.00;52376.66;4974787;28;20017;-71
2023/07/07 07:17:30;;;;;;;;;;;;;;;-140.72;0.00;52384.78;4990734;28;19929;-72
2023/07/07 07:19:55;;;;;;;;;;;;;;;-140.72;0.00;52407.09;4977023;28;19917;-72
2023/07/07 07:22:20;;;;;;;;;;;;;;;-140.72;0.00;52354.34;4973128;28;20001;-70
2023/07/07 07:24:46;;;;;;;;;;;;;;;-140.72;0.00;52358.41;4994567;28;19925;-72
2023/07/07 07:27:11;;;;;;;;;;;;;;;-140.72;0.00;52346.22;4992134;28;20438;-72
2023/07/07 07:29:36;;;;;;;;;;;;;;;-140.72;0.00;52338.09;4993929;28;19969;-72
2023/07/07 07:32:01;;;;;;;;;;;;;;;-140.72;0.00;52374.63;4993171;28;19922;-71
2023/07/07 07:34:28;;;;;;;;;;;;;;;-140.72;0.00;52376.66;4966506;28;19922;-72
2023/07/07 07:36:54;;;;;;;;;;;;;;;-140.72;0.00;52313.75;4971496;28;19950;-71
2023/07/07 07:39:20;;;;;;;;;;;;;;;-140.72;0.00;52332.03;4998055;28;19961;-71
2023/07/07 07:41:46;;;;;;;;;;;;;;;-140.72;0.00;52380.72;4988748;28;19928;-71
2023/07/07 07:44:12;;;;;;;;;;;;;;;-140.72;0.00;52358.41;4985643;28;20019;-76
2023/07/07 07:46:44;;;;;;;;;;;;;;;-140.72;0.00;52352.31;4973915;28;19922;-76
2023/07/07 07:49:10;;;;;;;;;;;;;;;-140.72;0.00;52350.28;4972595;28;19953;-72
2023/07/07 07:51:41;;;;;;;;;;;;;;;-140.72;0.00;52321.88;4976884;28;20351;-72
2023/07/07 07:54:08;;;;;;;;;;;;;;;-140.72;0.00;52358.41;4974438;28;19928;-72
2023/07/07 07:56:40;;;;;;;;;;;;;;;-140.72;0.00;52319.84;4988929;28;20365;-74
2023/07/07 07:59:24;;;;;;;;;;;;;;;-140.72;0.00;52291.44;4975550;28;19937;-74
2023/07/07 08:01:49;;;;;;;;;;;;;;;-140.72;0.00;52309.69;4988750;28;19980;-74
2023/07/07 08:04:14;;;;;;;;;;;;;;;-140.72;0.00;52330.00;4990627;28;19930;-73
2023/07/07 08:06:40;;;;;;;;;;;;;;;-140.72;0.00;52273.19;4991747;28;20387;-74
2023/07/07 08:09:05;;;;;;;;;;;;;;;-140.72;0.00;52269.13;4975332;28;19922;-71
2023/07/07 08:11:42;;;;;;;;;;;;;;;-140.72;0.00;52293.47;4992039;28;19944;-72
2023/07/07 08:14:12;;;;;;;;;;;;;;;-140.72;0.00;52228.53;4973930;28;19953;-72
2023/07/07 08:16:38;;;;;;;;;;;;;;;-140.72;0.00;52273.19;4990719;28;19945;-75
2023/07/07 08:19:03;;;;;;;;;;;;;;;-140.72;0.00;52248.81;4974373;28;21406;-75
2023/07/07 08:21:28;;;;;;;;;;;;;;;-140.72;0.00;52252.88;4975251;28;19952;-74
2023/07/07 08:23:53;;;;;;;;;;;;;;;-140.72;0.00;52248.81;4988110;28;19918;-77
2023/07/07 08:26:19;;;;;;;;;;;;;;;-140.72;0.00;52240.72;4983589;28;20029;-72
2023/07/07 08:28:44;;;;;;;;;;;;;;;-140.72;0.00;52232.59;4983112;28;19922;-73
2023/07/07 08:31:09;;;;;;;;;;;;;;;-140.72;0.00;52244.78;4983318;28;20012;-74
2023/07/07 08:33:37;;;;;;;;;;;;;;;-140.72;0.00;52196.06;4968265;28;19922;-77
2023/07/07 08:36:02;;;;;;;;;;;;;;;-140.72;0.00;52194.03;4992971;28;20016;-75
2023/07/07 08:38:27;;;;;;;;;;;;;;;-140.72;0.00;52196.06;4990938;28;19969;-77
2023/07/07 08:40:54;;;;;;;;;;;;;;;-140.72;0.00;52220.41;4973941;28;19922;-77
2023/07/07 08:43:21;;;;;;;;;;;;;;;-140.72;0.00;52204.19;4991049;28;20415;-77
2023/07/07 08:45:55;;;;;;;;;;;;;;;-140.72;0.00;52165.63;4989243;28;19949;-77
2023/07/07 08:48:33;;;;;;;;;;;;;;;-140.72;0.00;52194.03;4972494;28;19921;-77
2023/07/07 08:51:00;;;;;;;;;;;;;;;-140.72;0.00;52167.66;4968358;28;19933;-77
2023/07/07 08:56:19;;;;;;;;;;;;;;;-140.72;0.00;52102.75;4993686;28;19929;-75
2023/07/07 08:59:01;;;;;;;;;;;;;;;-140.72;0.00;52110.84;4981776;28;19922;-75
2023/07/07 09:01:42;;;;;;;;;;;;;;;-140.72;0.00;52161.56;4992149;28;19937;-73
2023/07/07 09:04:16;;;;;;;;;;;;;;;-140.72;0.00;52171.72;4990434;28;19922;-72
2023/07/07 09:06:53;;;;;;;;;;;;;;;-140.72;0.00;52090.56;4972384;28;20028;-73
2023/07/07 09:09:27;;;;;;;;;;;;;;;-140.72;0.00;52070.28;4983492;28;19937;-73
2023/07/07 09:12:11;;;;;;;;;;;;;;;-140.72;0.00;52043.91;4981382;28;19922;-74
2023/07/07 09:14:37;;;;;;;;;;;;;;;-140.72;0.00;52013.47;4990048;28;19922;-74
2023/07/07 09:17:05;;;;;;;;;;;;;;;-140.72;0.00;52025.63;4986712;28;19969;-74
2023/07/07 09:19:49;;;;;;;;;;;;;;;-140.72;0.00;52037.81;4965145;28;19925;-74
2023/07/07 09:22:23;;;;;;;;;;;;;;;-140.72;0.00;52037.81;4988456;28;19969;-77
2023/07/07 09:25:06;;;;;;;;;;;;;;;-140.72;0.00;52005.34;4973443;28;20362;-74
2023/07/07 09:27:46;;;;;;;;;;;;;;;-140.72;0.00;51960.72;5007130;28;19926;-73
2023/07/07 09:30:12;;;;;;;;;;;;;;;-140.72;0.00;51993.19;4991231;28;19972;-74
2023/07/07 09:32:37;;;;;;;;;;;;;;;-140.72;0.00;52001.28;4993674;28;19925;-74
2023/07/07 09:35:03;;;;;;;;;;;;;;;-140.72;0.00;51974.91;4974139;28;19929;-77
2023/07/07 09:37:28;;;;;;;;;;;;;;;-140.72;0.00;51954.63;4973493;28;20387;-76
2023/07/07 09:40:11;;;;;;;;;;;;;;;-140.72;0.00;51968.81;4997697;28;19922;-78
2023/07/07 09:42:38;;;;;;;;;;;;;;;-140.72;0.00;51952.59;4973360;28;20000;-77
2023/07/07 09:45:22;;;;;;;;;;;;;;;-140.72;0.00;51924.19;4976374;28;19949;-76
2023/07/07 09:48:03;;;;;;;;;;;;;;;-140.72;0.00;51907.97;4977959;28;19945;-83
2023/07/07 09:50:39;;;;;;;;;;;;;;;-140.72;0.00;51928.25;4990453;28;19969;-76
2023/07/07 09:53:12;;;;;;;;;;;;;;;-140.72;0.00;51966.81;4989464;28;19940;-77
2023/07/07 09:55:58;;;;;;;;;;;;;;;-140.72;0.00;51875.50;4985641;28;19965;-77
2023/07/07 09:58:23;;;;;;;;;;;;;;;-140.72;0.00;51867.38;4974602;28;19922;-77
2023/07/07 10:00:51;;;;;;;;;;;;;;;-140.72;0.00;51834.91;4974360;28;19926;-77
2023/07/07 10:03:21;;;;;;;;;;;;;;;-140.72;0.00;51810.56;4990473;28;19934;-78
2023/07/07 10:05:47;;;;;;;;;;;;;;;-140.72;0.00;51849.13;4990206;28;19952;-81
2023/07/07 10:08:14;;;;;;;;;;;;;;;-140.72;0.00;51873.47;4980976;28;19934;-79
2023/07/07 10:10:39;;;;;;;;;;;;;;;-140.72;0.00;51859.28;4976014;28;19928;-80
2023/07/07 10:13:08;;;;;;;;;;;;;;;-140.72;0.00;51838.97;4995270;28;19918;-77
2023/07/07 10:15:33;;;;;;;;;;;;;;;-140.72;0.00;51863.31;4996823;28;20275;-77
2023/07/07 10:18:03;;;;;;;;;;;;;;;-140.72;0.00;51794.34;4998769;28;19922;-77
2023/07/07 10:20:29;;;;;;;;;;;;;;;-140.72;0.00;51875.50;4978652;28;19928;-77
2023/07/07 10:22:55;;;;;;;;;;;;;;;-140.72;0.00;51820.72;4981277;28;19965;-77
2023/07/07 10:25:22;;;;;;;;;;;;;;;-140.72;0.00;51763.91;4995812;28;19918;-77
2023/07/07 10:27:50;;;;;;;;;;;;;;;-140.72;0.00;51749.72;4973522;28;19922;-77
2023/07/07 10:30:15;;;;;;;;;;;;;;;-140.72;0.00;51680.72;4992504;28;19929;-78
2023/07/07 10:32:41;;;;;;;;;;;;;;;-140.72;0.00;51709.13;5002336;28;19925;-78
2023/07/07 10:35:07;;;;;;;;;;;;;;;-140.72;0.00;51701.03;4979301;28;19918;-78
2023/07/07 10:37:33;;;;;;;;;;;;;;;-140.72;0.00;51656.38;4976320;28;19918;-77
2023/07/07 10:40:00;;;;;;;;;;;;;;;-140.72;0.00;51658.41;4975795;28;19921;-78
2023/07/07 10:42:27;;;;;;;;;;;;;;;-140.72;0.00;51652.34;5003543;28;19926;-80
2023/07/07 10:44:54;;;;;;;;;;;;;;;-140.72;0.00;51638.13;4981220;28;20380;-83
2023/07/07 10:47:30;;;;;;;;;;;;;;;-140.72;0.00;51660.44;4987320;28;19925;-82
2023/07/07 10:49:57;;;;;;;;;;;;;;;-140.72;0.00;51556.97;4980051;28;19922;-78
2023/07/07 10:52:41;;;;;;;;;;;;;;;-140.72;0.00;51538.72;4982429;28;19929;-80
2023/07/07 10:55:16;;;;;;;;;;;;;;;-140.72;0.00;51615.81;5001637;28;19918;-78
2023/07/07 10:57:54;;;;;;;;;;;;;;;-140.72;0.00;51607.69;4977680;28;19918;-77
2023/07/07 11:00:28;;;;;;;;;;;;;;;-140.72;0.00;51534.66;4978218;28;19972;-77
2023/07/07 11:03:03;;;;;;;;;;;;;;;-140.72;0.00;51546.84;4977316;28;19953;-77
2023/07/07 11:05:28;;;;;;;;;;;;;;;-140.72;0.00;51648.28;4976661;28;19932;-76
2023/07/07 11:08:30;;;;;;;;;;;;;;;-140.72;0.00;51656.38;4977123;28;20012;-77
2023/07/07 11:11:03;;;;;;;;;;;;;;;-140.72;0.00;51668.56;4996080;28;19973;-77
2023/07/07 11:13:42;;;;;;;;;;;;;;;-140.72;0.00;51664.50;5001762;28;19917;-75
2023/07/07 11:16:22;;;;;;;;;;;;;;;-140.72;0.00;51567.13;4975032;28;20033;-71
2023/07/07 11:19:17;;;;;;;;;;;;;;;-140.72;0.00;51591.47;4988991;28;19926;-71
2023/07/07 11:21:48;;;;;;;;;;;;;;;-140.72;0.00;51563.06;4939555;28;20019;-71
2023/07/07 11:24:19;;;;;;;;;;;;;;;-140.72;0.00;51554.94;4986246;28;19917;-72
2023/07/07 11:26:44;;;;;;;;;;;;;;;-140.72;0.00;51520.47;4987604;28;20442;-70
2023/07/07 11:29:35;;;;;;;;;;;;;;;-140.72;0.00;51561.03;4972703;28;19921;-70
2023/07/07 11:32:13;;;;;;;;;;;;;;;-140.72;0.00;51522.50;4957535;28;19984;-70
2023/07/07 11:35:07;;;;;;;;;;;;;;;-140.72;0.00;51530.59;4974936;28;20056;-75
2023/07/07 11:37:35;;;;;;;;;;;;;;;-140.72;0.00;51508.28;4934199;28;20914;-76
2023/07/07 11:40:13;;;;;;;;;;;;;;;-140.72;0.00;51461.63;4973319;28;19926;-74
2023/07/07 11:42:52;;;;;;;;;;;;;;;-140.72;0.00;51429.19;4991474;28;19917;-74
2023/07/07 11:45:21;;;;;;;;;;;;;;;-140.72;0.00;51473.81;4974549;28;20406;-75
2023/07/07 11:48:05;;;;;;;;;;;;;;;-140.72;0.00;51449.47;4975209;28;19931;-74
2023/07/07 11:51:09;;;;;;;;;;;;;;;-140.72;0.00;51463.66;4972871;28;19922;-75
2023/07/07 11:53:58;;;;;;;;;;;;;;;-140.72;0.00;51459.59;4895264;29;19919;-74
2023/07/07 11:56:26;;;;;;;;;;;;;;;-140.72;0.00;51437.28;4876848;29;19923;-74
2023/07/07 11:59:10;;;;;;;;;;;;;;;-140.72;0.00;51437.28;4953744;28;19921;-71
2023/07/07 12:01:38;;;;;;;;;;;;;;;-140.72;0.00;51406.88;4989716;28;19922;-72
2023/07/07 12:04:15;;;;;;;;;;;;;;;-140.72;0.00;51376.44;4992982;28;19929;-76
2023/07/07 12:06:45;;;;;;;;;;;;;;;-140.72;0.00;51384.53;4979435;28;19932;-77
2023/07/07 12:09:14;;;;;;;;;;;;;;;-140.72;0.00;51412.94;4975505;28;19929;-75
2023/07/07 12:11:42;;;;;;;;;;;;;;;-140.72;0.00;51398.75;4991652;28;20368;-75
2023/07/07 12:14:33;;;;;;;;;;;;;;;-140.72;0.00;51494.09;4975091;28;19986;-76
2023/07/07 12:17:00;;;;;;;;;;;;;;;-140.72;0.00;51463.66;4986838;28;20175;-75
2023/07/07 12:19:31;;;;;;;;;;;;;;;-140.72;0.00;51465.69;4991949;28;19917;-76
2023/07/07 12:21:59;;;;;;;;;;;;;;;-140.72;0.00;51611.75;4977410;28;19929;-76
2023/07/07 12:24:28;;;;;;;;;;;;;;;-140.72;0.00;51524.53;4986944;28;20064;-79
2023/07/07 12:27:09;;;;;;;;;;;;;;;-140.72;0.00;51615.81;4991404;28;20009;-77
2023/07/07 12:29:39;;;;;;;;;;;;;;;-140.72;0.00;51571.19;4973115;28;20327;-78
2023/07/07 12:32:05;;;;;;;;;;;;;;;-140.72;0.00;51522.50;4976039;28;20376;-76
2023/07/07 12:34:36;;;;;;;;;;;;;;;-140.72;0.00;51469.75;4990371;28;19973;-77
2023/07/07 12:37:04;;;;;;;;;;;;;;;-140.72;0.00;51453.53;4972087;28;19932;-78